createdAt,value
2022-07-27T00:01:40.475Z,20.35
2022-07-27T00:04:17.004Z,20.30
2022-07-27T00:06:44.476Z,20.21
2022-07-27T00:09:11.825Z,20.08
2022-07-27T00:11:38.789Z,20.10
2022-07-27T00:14:05.500Z,20.05
2022-07-27T00:16:32.150Z,19.98
2022-07-27T00:18:58.848Z,19.91
2022-07-27T00:21:26.736Z,19.82
2022-07-27T00:23:54.558Z,19.75
2022-07-27T00:26:21.398Z,19.68
2022-07-27T00:28:48.885Z,19.63
2022-07-27T00:31:16.779Z,19.59
2022-07-27T00:33:43.484Z,19.55
2022-07-27T00:36:10.208Z,19.60
2022-07-27T00:38:36.870Z,19.64
2022-07-27T00:41:04.305Z,19.63
2022-07-27T00:43:30.921Z,19.71
2022-07-27T00:45:57.621Z,19.71
2022-07-27T00:48:25.103Z,19.70
2022-07-27T00:50:55.482Z,19.64
2022-07-27T00:53:22.133Z,19.60
2022-07-27T00:55:48.905Z,19.55
2022-07-27T00:58:16.977Z,19.51
2022-07-27T01:00:44.573Z,19.50
2022-07-27T01:03:11.217Z,19.47
2022-07-27T01:05:42.601Z,19.41
2022-07-27T01:08:12.735Z,19.41
2022-07-27T01:10:40.923Z,19.39
2022-07-27T01:13:12.930Z,19.36
2022-07-27T01:15:41.135Z,19.24
2022-07-27T01:18:27.030Z,19.21
2022-07-27T01:20:54.223Z,19.09
2022-07-27T01:23:20.833Z,19.04
2022-07-27T01:25:47.645Z,19.00
2022-07-27T01:28:14.263Z,18.98
2022-07-27T01:30:40.821Z,19.00
2022-07-27T01:33:09.090Z,18.98
2022-07-27T01:35:37.333Z,19.00
2022-07-27T01:38:04.866Z,19.03
2022-07-27T01:40:31.923Z,19.07
2022-07-27T01:42:58.527Z,19.07
2022-07-27T01:45:25.417Z,19.04
2022-07-27T01:47:51.996Z,19.04
2022-07-27T01:50:18.620Z,19.06
2022-07-27T01:52:45.269Z,19.02
2022-07-27T01:55:11.885Z,19.11
2022-07-27T01:57:39.064Z,19.14
2022-07-27T02:00:09.500Z,19.16
2022-07-27T02:02:39.919Z,19.15
2022-07-27T02:05:07.768Z,19.21
2022-07-27T02:07:34.418Z,19.23
2022-07-27T02:10:01.002Z,19.21
2022-07-27T02:12:36.196Z,19.20
2022-07-27T02:15:15.430Z,19.18
2022-07-27T02:17:44.086Z,19.18
2022-07-27T02:20:13.321Z,19.16
2022-07-27T02:22:40.108Z,19.11
2022-07-27T02:25:08.491Z,19.11
2022-07-27T02:27:35.393Z,19.08
2022-07-27T02:30:02.479Z,19.02
2022-07-27T02:32:29.231Z,19.02
2022-07-27T02:34:55.912Z,19.02
2022-07-27T02:37:22.623Z,18.97
2022-07-27T02:39:49.575Z,19.01
2022-07-27T02:42:16.421Z,19.05
2022-07-27T02:44:42.980Z,19.03
2022-07-27T02:47:09.605Z,19.00
2022-07-27T02:49:36.418Z,18.98
2022-07-27T02:52:04.503Z,19.03
2022-07-27T02:54:32.512Z,18.96
2022-07-27T02:57:02.777Z,19.04
2022-07-27T02:59:29.346Z,19.04
2022-07-27T03:01:55.980Z,19.00
2022-07-27T03:04:23.198Z,19.02
2022-07-27T03:06:49.810Z,18.97
2022-07-27T03:09:16.773Z,18.91
2022-07-27T03:11:43.420Z,18.87
2022-07-27T03:14:10.075Z,18.80
2022-07-27T03:16:36.863Z,18.81
2022-07-27T03:19:03.714Z,18.71
2022-07-27T03:21:30.305Z,18.68
2022-07-27T03:23:56.914Z,18.64
2022-07-27T03:26:23.664Z,18.60
2022-07-27T03:28:50.641Z,18.54
2022-07-27T03:31:17.343Z,18.49
2022-07-27T03:33:44.029Z,18.47
2022-07-27T03:36:10.634Z,18.46
2022-07-27T03:38:37.258Z,18.43
2022-07-27T03:41:03.991Z,18.43
2022-07-27T03:43:30.593Z,18.41
2022-07-27T03:45:57.264Z,18.40
2022-07-27T03:48:23.929Z,18.39
2022-07-27T03:50:50.618Z,18.36
2022-07-27T03:53:17.808Z,18.40
2022-07-27T03:55:44.869Z,18.40
2022-07-27T03:58:11.496Z,18.39
2022-07-27T04:00:38.103Z,18.37
2022-07-27T04:03:04.867Z,18.38
2022-07-27T04:05:31.620Z,18.42
2022-07-27T04:07:58.406Z,18.48
2022-07-27T04:10:27.700Z,18.50
2022-07-27T04:12:58.651Z,18.52
2022-07-27T04:15:26.361Z,18.52
2022-07-27T04:17:57.017Z,18.49
2022-07-27T04:20:24.448Z,18.49
2022-07-27T04:22:51.102Z,18.48
2022-07-27T04:25:17.711Z,18.46
2022-07-27T04:27:44.341Z,18.44
2022-07-27T04:30:11.408Z,18.46
2022-07-27T04:32:38.202Z,18.49
2022-07-27T04:35:06.009Z,18.55
2022-07-27T04:37:33.534Z,18.62
2022-07-27T04:40:00.952Z,18.69
2022-07-27T04:42:28.554Z,18.75
2022-07-27T04:44:55.344Z,18.79
2022-07-27T04:47:21.986Z,18.83
2022-07-27T04:49:48.677Z,18.84
2022-07-27T04:52:16.697Z,18.85
2022-07-27T04:54:43.765Z,18.78
2022-07-27T04:57:10.402Z,18.85
2022-07-27T04:59:37.218Z,18.85
2022-07-27T05:02:04.206Z,18.92
2022-07-27T05:04:30.966Z,18.88
2022-07-27T05:06:57.854Z,18.85
2022-07-27T05:09:24.532Z,18.84
2022-07-27T05:11:52.169Z,18.85
2022-07-27T05:14:21.232Z,18.85
2022-07-27T05:16:48.747Z,18.85
2022-07-27T05:19:15.647Z,18.84
2022-07-27T05:21:42.897Z,18.85
2022-07-27T05:24:10.158Z,18.90
2022-07-27T05:26:37.317Z,18.93
2022-07-27T05:29:03.956Z,18.99
2022-07-27T05:31:30.702Z,18.99
2022-07-27T05:33:58.355Z,18.99
2022-07-27T05:36:25.695Z,18.97
2022-07-27T05:38:52.357Z,18.97
2022-07-27T05:41:25.709Z,19.04
2022-07-27T05:43:54.510Z,19.05
2022-07-27T05:46:22.162Z,19.01
2022-07-27T05:48:49.565Z,18.95
2022-07-27T05:51:16.262Z,18.94
2022-07-27T05:53:42.916Z,18.95
2022-07-27T05:56:09.738Z,18.98
2022-07-27T05:58:36.416Z,19.05
2022-07-27T06:01:03.482Z,19.11
2022-07-27T06:03:30.301Z,19.15
2022-07-27T06:06:17.066Z,19.19
2022-07-27T06:08:44.732Z,19.24
2022-07-27T06:11:11.534Z,19.21
2022-07-27T06:13:41.981Z,19.30
2022-07-27T06:16:09.665Z,19.26
2022-07-27T06:18:36.517Z,19.31
2022-07-27T06:21:04.625Z,19.45
2022-07-27T06:23:31.438Z,19.55
2022-07-27T06:25:58.107Z,19.57
2022-07-27T06:28:24.785Z,19.59
2022-07-27T06:30:53.523Z,19.67
2022-07-27T06:33:28.355Z,19.72
2022-07-27T06:35:56.682Z,19.72
2022-07-27T06:38:24.608Z,19.63
2022-07-27T06:40:55.059Z,19.80
2022-07-27T06:43:23.489Z,19.78
2022-07-27T06:45:50.201Z,19.81
2022-07-27T06:48:17.231Z,19.89
2022-07-27T06:50:44.308Z,19.93
2022-07-27T06:53:11.078Z,19.99
2022-07-27T06:55:37.678Z,20.08
2022-07-27T06:58:05.210Z,20.13
2022-07-27T07:00:31.869Z,20.20
2022-07-27T07:03:01.355Z,20.22
2022-07-27T07:05:28.087Z,20.22
2022-07-27T07:07:55.563Z,20.30
2022-07-27T07:10:24.113Z,20.39
2022-07-27T07:12:55.571Z,20.49
2022-07-27T07:15:24.962Z,20.51
2022-07-27T07:17:52.455Z,20.61
2022-07-27T07:20:19.269Z,20.74
2022-07-27T07:22:45.934Z,20.88
2022-07-27T07:25:12.612Z,21.03
2022-07-27T07:27:39.214Z,21.15
2022-07-27T07:30:07.313Z,21.18
2022-07-27T07:32:34.041Z,21.17
2022-07-27T07:35:03.582Z,21.21
2022-07-27T07:37:33.828Z,21.30
2022-07-27T07:40:12.987Z,21.41
2022-07-27T07:43:00.225Z,21.63
2022-07-27T07:45:28.322Z,21.63
2022-07-27T07:47:55.837Z,21.67
2022-07-27T07:50:23.342Z,21.75
2022-07-27T07:52:51.408Z,21.88
2022-07-27T07:55:26.142Z,21.99
2022-07-27T07:57:53.636Z,21.93
2022-07-27T08:00:21.151Z,21.82
2022-07-27T08:02:49.878Z,21.85
2022-07-27T08:05:16.926Z,21.98
2022-07-27T08:07:44.811Z,22.04
2022-07-27T08:10:13.125Z,22.07
2022-07-27T08:12:42.458Z,22.13
2022-07-27T08:15:10.057Z,22.20
2022-07-27T08:17:36.668Z,22.23
2022-07-27T08:20:04.917Z,22.24
2022-07-27T08:22:33.471Z,22.24
2022-07-27T08:25:00.171Z,22.23
2022-07-27T08:27:26.787Z,22.25
2022-07-27T08:29:53.454Z,22.46
2022-07-27T08:32:20.200Z,22.76
2022-07-27T08:34:46.975Z,22.90
2022-07-27T08:37:15.746Z,22.91
2022-07-27T08:40:37.434Z,22.95
2022-07-27T08:42:30.089Z,22.98
2022-07-27T08:44:58.139Z,22.87
2022-07-27T08:47:25.727Z,23.03
2022-07-27T08:49:53.004Z,23.14
2022-07-27T08:57:13.349Z,23.38
2022-07-27T08:59:39.937Z,23.48
2022-07-27T09:02:10.992Z,23.60
2022-07-27T09:04:40.295Z,23.87
2022-07-27T09:07:07.193Z,24.08
2022-07-27T09:09:46.987Z,24.08
2022-07-27T09:12:13.737Z,24.05
2022-07-27T09:14:41.774Z,24.00
2022-07-27T09:20:18.853Z,24.09
2022-07-27T09:22:52.458Z,24.07
2022-07-27T09:25:45.300Z,24.16
2022-07-27T09:28:11.677Z,24.39
2022-07-27T09:30:43.154Z,24.56
2022-07-27T09:33:09.911Z,24.66
2022-07-27T09:35:36.709Z,24.78
2022-07-27T09:38:24.308Z,24.74
2022-07-27T09:41:02.539Z,24.83
2022-07-27T09:46:17.004Z,24.88
2022-07-27T09:48:43.700Z,24.95
2022-07-27T09:51:57.526Z,25.04
2022-07-27T09:54:00.160Z,25.09
2022-07-27T09:56:31.362Z,25.16
2022-07-27T09:59:02.704Z,25.43
2022-07-27T10:01:33.166Z,25.56
2022-07-27T10:04:03.157Z,25.64
2022-07-27T10:06:38.965Z,25.73
2022-07-27T10:09:14.922Z,26.02
2022-07-27T10:11:41.821Z,26.07
2022-07-27T10:14:08.404Z,26.00
2022-07-27T10:16:36.413Z,25.91
2022-07-27T10:19:07.912Z,25.66
2022-07-27T10:21:38.892Z,25.51
2022-07-27T10:24:13.707Z,25.32
2022-07-27T10:26:42.853Z,25.15
2022-07-27T10:29:17.869Z,25.07
2022-07-27T10:31:53.584Z,24.94
2022-07-27T10:34:38.355Z,24.98
2022-07-27T10:37:09.201Z,25.20
2022-07-27T10:39:39.624Z,25.34
2022-07-27T10:42:29.714Z,25.39
2022-07-27T10:45:00.589Z,25.61
2022-07-27T10:47:28.747Z,25.84
2022-07-27T10:50:16.975Z,25.83
2022-07-27T10:52:48.251Z,25.77
2022-07-27T10:55:30.209Z,25.89
2022-07-27T10:58:09.793Z,25.97
2022-07-27T11:00:55.066Z,26.11
2022-07-27T11:03:24.942Z,26.49
2022-07-27T11:06:14.499Z,26.82
2022-07-27T11:09:08.550Z,26.97
2022-07-27T11:11:37.557Z,26.53
2022-07-27T11:14:04.318Z,26.19
2022-07-27T11:16:31.181Z,26.19
2022-07-27T11:19:01.609Z,26.43
2022-07-27T11:21:30.890Z,26.70
2022-07-27T11:24:05.933Z,27.00
2022-07-27T11:26:41.974Z,27.36
2022-07-27T11:29:14.110Z,27.62
2022-07-27T11:31:59.195Z,27.77
2022-07-27T11:34:35.802Z,28.07
2022-07-27T11:37:11.911Z,27.97
2022-07-27T11:42:37.172Z,28.39
2022-07-27T11:45:05.032Z,28.89
2022-07-27T11:47:34.039Z,29.06
2022-07-27T11:50:08.517Z,28.93
2022-07-27T11:52:35.257Z,28.83
2022-07-27T11:55:02.038Z,28.60
2022-07-27T11:57:33.906Z,28.19
2022-07-27T12:00:00.594Z,27.80
2022-07-27T12:02:28.410Z,27.45
2022-07-27T12:05:02.101Z,27.29
2022-07-27T12:07:31.706Z,27.31
2022-07-27T12:10:02.120Z,27.15
2022-07-27T12:12:33.637Z,26.88
2022-07-27T12:18:04.771Z,26.50
2022-07-27T12:20:33.707Z,26.49
2022-07-27T12:23:06.514Z,26.94
2022-07-27T12:25:34.424Z,27.35
2022-07-27T12:28:02.362Z,27.56
2022-07-27T12:30:28.920Z,27.52
2022-07-27T12:32:55.836Z,27.42
2022-07-27T12:35:32.782Z,27.55
2022-07-27T12:38:06.260Z,27.48
2022-07-27T12:40:34.754Z,27.63
2022-07-27T12:43:04.264Z,27.65
2022-07-27T12:45:34.318Z,27.49
2022-07-27T12:48:11.560Z,27.35
2022-07-27T12:50:41.110Z,27.49
2022-07-27T12:53:09.507Z,27.80
2022-07-27T12:55:37.184Z,28.01
2022-07-27T12:58:03.928Z,27.96
2022-07-27T13:00:34.009Z,27.86
2022-07-27T13:03:02.222Z,27.70
2022-07-27T13:05:28.968Z,27.77
2022-07-27T13:07:55.791Z,28.25
2022-07-27T13:10:22.612Z,28.80
2022-07-27T13:12:50.214Z,29.37
2022-07-27T13:15:18.330Z,29.57
2022-07-27T13:17:46.162Z,29.40
2022-07-27T13:20:14.158Z,29.10
2022-07-27T13:22:41.847Z,29.03
2022-07-27T13:25:16.509Z,29.29
2022-07-27T13:27:45.332Z,29.60
2022-07-27T13:30:13.494Z,30.10
2022-07-27T13:32:41.246Z,30.05
2022-07-27T13:35:09.394Z,29.60
2022-07-27T13:37:36.191Z,29.31
2022-07-27T13:40:04.517Z,29.67
2022-07-27T13:42:31.359Z,30.13
2022-07-27T13:45:08.778Z,29.99
2022-07-27T13:47:37.092Z,29.54
2022-07-27T13:50:04.567Z,29.73
2022-07-27T13:52:31.170Z,29.95
2022-07-27T13:54:57.751Z,30.43
2022-07-27T13:57:24.375Z,30.75
2022-07-27T13:59:51.026Z,30.82
2022-07-27T14:02:20.658Z,30.79
2022-07-27T14:04:49.901Z,30.75
2022-07-27T14:07:17.062Z,30.98
2022-07-27T14:10:02.467Z,31.16
2022-07-27T14:12:29.281Z,30.84
2022-07-27T14:14:55.892Z,30.53
2022-07-27T14:17:22.983Z,29.97
2022-07-27T14:19:49.611Z,29.47
2022-07-27T14:22:16.232Z,29.28
2022-07-27T14:24:43.325Z,29.62
2022-07-27T14:27:10.232Z,30.06
2022-07-27T14:29:36.852Z,30.22
2022-07-27T14:32:04.080Z,30.44
2022-07-27T14:34:30.862Z,30.59
2022-07-27T14:36:57.508Z,30.82
2022-07-27T14:39:24.170Z,31.02
2022-07-27T14:41:51.024Z,31.20
2022-07-27T14:44:18.705Z,31.32
2022-07-27T14:46:46.300Z,30.92
2022-07-27T14:49:14.612Z,30.39
2022-07-27T14:51:41.291Z,29.78
2022-07-27T14:54:08.341Z,29.79
2022-07-27T14:56:36.630Z,30.25
2022-07-27T14:59:04.297Z,30.39
2022-07-27T15:01:31.843Z,30.21
2022-07-27T15:03:58.582Z,29.95
2022-07-27T15:06:25.266Z,29.71
2022-07-27T15:08:51.982Z,29.29
2022-07-27T15:11:18.678Z,28.87
2022-07-27T15:13:45.325Z,28.85
2022-07-27T15:16:12.168Z,29.32
2022-07-27T15:18:39.226Z,29.86
2022-07-27T15:21:13.448Z,30.13
2022-07-27T15:23:42.282Z,30.31
2022-07-27T15:26:08.935Z,30.31
2022-07-27T15:28:36.476Z,30.51
2022-07-27T15:31:03.673Z,30.66
2022-07-27T15:33:30.640Z,30.47
2022-07-27T15:35:57.397Z,30.06
2022-07-27T15:38:24.152Z,29.78
2022-07-27T15:40:50.794Z,29.69
2022-07-27T15:43:18.319Z,29.92
2022-07-27T15:45:51.644Z,30.21
2022-07-27T15:48:20.314Z,30.29
2022-07-27T15:50:50.558Z,30.41
2022-07-27T15:53:18.712Z,30.44
2022-07-27T15:55:45.559Z,30.57
2022-07-27T15:58:17.741Z,30.34
2022-07-27T16:00:45.758Z,30.00
2022-07-27T16:03:15.311Z,30.00
2022-07-27T16:05:47.515Z,30.05
2022-07-27T16:08:15.736Z,30.07
2022-07-27T16:10:43.387Z,29.80
2022-07-27T16:13:15.152Z,29.58
2022-07-27T16:16:00.915Z,29.65
2022-07-27T16:18:28.082Z,29.88
2022-07-27T16:20:55.198Z,30.03
2022-07-27T16:23:22.545Z,30.14
2022-07-27T16:26:07.905Z,29.86
2022-07-27T16:28:38.782Z,29.32
2022-07-27T16:31:07.570Z,28.90
2022-07-27T16:33:34.342Z,28.88
2022-07-27T16:36:00.973Z,29.03
2022-07-27T16:38:27.918Z,28.94
2022-07-27T16:40:54.774Z,28.78
2022-07-27T16:43:21.352Z,28.56
2022-07-27T16:45:47.962Z,28.42
2022-07-27T16:48:14.594Z,28.30
2022-07-27T16:50:41.231Z,28.10
2022-07-27T16:53:07.835Z,27.92
2022-07-27T16:55:34.515Z,27.96
2022-07-27T16:58:01.085Z,28.12
2022-07-27T17:00:27.760Z,28.22
2022-07-27T17:02:54.961Z,28.26
2022-07-27T17:05:21.909Z,28.16
2022-07-27T17:07:51.117Z,28.22
2022-07-27T17:10:26.471Z,28.36
2022-07-27T17:12:54.037Z,28.45
2022-07-27T17:15:22.487Z,28.41
2022-07-27T17:17:49.426Z,28.31
2022-07-27T17:20:16.178Z,28.20
2022-07-27T17:22:59.673Z,28.09
2022-07-27T17:25:26.328Z,27.92
2022-07-27T17:27:52.930Z,27.77
2022-07-27T17:30:19.628Z,27.75
2022-07-27T17:32:46.396Z,27.91
2022-07-27T17:35:13.041Z,27.90
2022-07-27T17:38:04.456Z,27.88
2022-07-27T17:40:26.244Z,27.67
2022-07-27T17:42:53.294Z,27.44
2022-07-27T17:45:19.937Z,27.48
2022-07-27T17:47:46.510Z,27.38
2022-07-27T17:50:13.231Z,27.23
2022-07-27T17:52:41.422Z,26.88
2022-07-27T17:55:09.221Z,26.64
2022-07-27T17:57:35.893Z,26.77
2022-07-27T18:00:05.296Z,28.14
2022-07-27T18:02:31.934Z,29.38
2022-07-27T18:04:58.604Z,29.83
2022-07-27T18:07:25.218Z,29.30
2022-07-27T18:09:51.842Z,28.46
2022-07-27T18:12:21.577Z,27.79
2022-07-27T18:15:08.081Z,27.16
2022-07-27T18:17:39.216Z,26.64
2022-07-27T18:20:10.501Z,26.15
2022-07-27T18:22:38.659Z,25.85
2022-07-27T18:25:07.020Z,25.55
2022-07-27T18:27:35.379Z,25.29
2022-07-27T18:30:04.432Z,25.06
2022-07-27T18:32:31.284Z,24.90
2022-07-27T18:34:57.884Z,24.78
2022-07-27T18:37:24.450Z,24.64
2022-07-27T18:39:51.049Z,24.58
2022-07-27T18:42:17.696Z,24.52
2022-07-27T18:44:44.325Z,24.45
2022-07-27T18:47:10.943Z,24.32
2022-07-27T18:49:37.636Z,24.24
2022-07-27T18:52:05.112Z,24.14
2022-07-27T18:54:31.768Z,24.04
2022-07-27T18:56:58.375Z,23.88
2022-07-27T18:59:25.055Z,23.78
2022-07-27T19:01:51.750Z,23.74
2022-07-27T19:04:18.350Z,23.73
2022-07-27T19:06:45.144Z,23.69
2022-07-27T19:09:13.290Z,23.64
2022-07-27T19:11:40.282Z,23.59
2022-07-27T19:14:07.359Z,23.48
2022-07-27T19:16:37.066Z,23.37
2022-07-27T19:19:05.877Z,23.33
2022-07-27T19:21:34.348Z,23.08
2022-07-27T19:24:01.120Z,23.12
2022-07-27T19:26:27.708Z,23.08
2022-07-27T19:28:54.284Z,23.03
2022-07-27T19:31:22.838Z,22.95
2022-07-27T19:33:51.138Z,22.88
2022-07-27T19:36:18.463Z,22.80
2022-07-27T19:38:45.078Z,22.80
2022-07-27T19:41:11.682Z,22.75
2022-07-27T19:43:38.356Z,22.66
2022-07-27T19:46:05.412Z,22.66
2022-07-27T19:48:32.320Z,22.58
2022-07-27T19:51:06.375Z,22.50
2022-07-27T19:53:35.472Z,22.45
2022-07-27T19:56:02.748Z,22.39
2022-07-27T19:58:29.731Z,22.29
2022-07-27T20:00:56.540Z,22.21
2022-07-27T20:03:23.486Z,22.09
2022-07-27T20:05:50.197Z,22.02
2022-07-27T20:08:16.980Z,21.97
2022-07-27T20:10:44.146Z,21.91
2022-07-27T20:13:10.948Z,21.81
2022-07-27T20:15:37.694Z,21.76
2022-07-27T20:18:04.609Z,21.73
2022-07-27T20:20:31.716Z,21.68
2022-07-27T20:22:58.553Z,21.60
2022-07-27T20:25:25.924Z,21.51
2022-07-27T20:27:52.847Z,21.46
2022-07-27T20:30:20.065Z,21.47
2022-07-27T20:32:50.303Z,21.42
2022-07-27T20:35:17.225Z,21.39
2022-07-27T20:37:44.952Z,21.34
2022-07-27T20:40:12.809Z,21.35
2022-07-27T20:42:41.454Z,21.36
2022-07-27T20:45:10.270Z,21.33
2022-07-27T20:47:38.414Z,21.33
2022-07-27T20:50:09.854Z,21.30
2022-07-27T20:52:37.392Z,21.26
2022-07-27T20:55:06.019Z,21.17
2022-07-27T20:57:32.652Z,21.22
2022-07-27T20:59:59.353Z,21.17
2022-07-27T21:02:26.129Z,21.16
2022-07-27T21:04:54.916Z,21.11
2022-07-27T21:07:21.642Z,21.08
2022-07-27T21:09:48.713Z,21.02
2022-07-27T21:12:15.526Z,20.94
2022-07-27T21:14:42.849Z,20.90
2022-07-27T21:17:09.679Z,20.93
2022-07-27T21:19:36.675Z,20.89
2022-07-27T21:22:03.416Z,20.88
2022-07-27T21:24:30.035Z,20.89
2022-07-27T21:26:59.806Z,20.89
2022-07-27T21:29:31.682Z,20.83
2022-07-27T21:31:58.703Z,20.79
2022-07-27T21:34:25.305Z,20.71
2022-07-27T21:36:51.976Z,20.67
2022-07-27T21:39:18.798Z,20.62
2022-07-27T21:41:45.624Z,20.55
2022-07-27T21:44:12.449Z,20.52
2022-07-27T21:46:39.334Z,20.51
2022-07-27T21:49:06.125Z,20.55
2022-07-27T21:51:32.800Z,20.55
2022-07-27T21:53:59.461Z,20.53
2022-07-27T21:56:26.436Z,20.48
2022-07-27T21:58:53.042Z,20.44
2022-07-27T22:01:19.796Z,20.39
2022-07-27T22:03:47.105Z,20.35
2022-07-27T22:06:13.782Z,20.34
2022-07-27T22:08:40.404Z,20.36
2022-07-27T22:11:07.326Z,20.37
2022-07-27T22:13:33.981Z,20.36
2022-07-27T22:16:01.136Z,20.36
2022-07-27T22:18:28.807Z,20.37
2022-07-27T22:20:55.972Z,20.35
2022-07-27T22:23:23.126Z,20.28
2022-07-27T22:25:50.008Z,20.33
2022-07-27T22:28:16.602Z,20.32
2022-07-27T22:30:43.233Z,20.28
2022-07-27T22:33:29.809Z,20.32
2022-07-27T22:35:57.703Z,20.31
2022-07-27T22:38:24.469Z,20.26
2022-07-27T22:40:55.386Z,20.24
2022-07-27T22:43:22.518Z,20.23
2022-07-27T22:45:49.922Z,20.18
2022-07-27T22:48:16.634Z,20.16
2022-07-27T22:50:44.513Z,20.12
2022-07-27T22:53:11.621Z,20.07
2022-07-27T22:55:38.880Z,20.01
2022-07-27T22:58:05.545Z,19.99
2022-07-27T23:00:32.268Z,19.96
2022-07-27T23:02:59.258Z,19.91
2022-07-27T23:05:26.045Z,19.90
2022-07-27T23:07:52.674Z,19.95
2022-07-27T23:10:37.938Z,19.93
2022-07-27T23:13:04.530Z,19.91
2022-07-27T23:15:31.456Z,19.88
2022-07-27T23:17:58.183Z,19.89
2022-07-27T23:20:24.753Z,19.89
2022-07-27T23:22:52.613Z,19.85
2022-07-27T23:25:19.973Z,19.85
2022-07-27T23:27:49.408Z,19.83
2022-07-27T23:30:16.053Z,19.80
2022-07-27T23:32:42.644Z,19.78
2022-07-27T23:35:09.562Z,19.73
2022-07-27T23:37:36.598Z,19.73
2022-07-27T23:40:05.026Z,19.71
2022-07-27T23:42:31.631Z,19.70
2022-07-27T23:44:58.280Z,19.69
2022-07-27T23:47:24.866Z,19.66
2022-07-27T23:49:51.509Z,19.60
2022-07-27T23:52:18.192Z,19.60
2022-07-27T23:54:45.148Z,19.59
2022-07-27T23:57:11.834Z,19.56
2022-07-27T23:59:38.766Z,19.48
